createdAt,value
2023-01-04T00:01:15.399Z,102167.16
2023-01-04T00:03:40.675Z,102150.44
2023-01-04T00:06:07.266Z,102145.09
2023-01-04T00:08:31.647Z,102138.91
2023-01-04T00:10:55.147Z,102136.72
2023-01-04T00:13:18.727Z,102137.56
2023-01-04T00:15:42.408Z,102129.59
2023-01-04T00:18:06.246Z,102132.34
2023-01-04T00:20:31.219Z,102124.69
2023-01-04T00:22:54.868Z,102124.31
2023-01-04T00:25:18.504Z,102121.59
2023-01-04T00:27:42.313Z,102109.09
2023-01-04T00:30:07.011Z,102093.88
2023-01-04T00:32:30.646Z,102097.47
2023-01-04T00:34:54.148Z,102105.00
2023-01-04T00:37:19.121Z,102093.34
2023-01-04T00:39:42.641Z,102077.53
2023-01-04T00:42:06.455Z,102079.81
2023-01-04T00:44:30.689Z,102076.69
2023-01-04T00:46:54.437Z,102074.59
2023-01-04T00:49:17.972Z,102074.81
2023-01-04T00:51:43.438Z,102066.91
2023-01-04T00:54:14.359Z,102057.59
2023-01-04T00:56:37.929Z,102040.38
2023-01-04T00:59:03.857Z,102031.75
2023-01-04T01:01:28.771Z,102039.38
2023-01-04T01:03:55.160Z,102038.19
2023-01-04T01:06:19.561Z,102041.63
2023-01-04T01:08:43.072Z,102040.91
2023-01-04T01:11:10.838Z,102033.53
2023-01-04T01:13:35.152Z,102037.94
2023-01-04T01:16:04.251Z,102026.25
2023-01-04T01:18:27.824Z,102025.06
2023-01-04T01:20:51.373Z,102022.41
2023-01-04T01:23:16.983Z,102016.13
2023-01-04T01:25:41.106Z,102018.06
2023-01-04T01:28:06.428Z,102028.16
2023-01-04T01:30:30.026Z,102029.97
2023-01-04T01:32:53.597Z,102033.25
2023-01-04T01:35:17.898Z,102032.78
2023-01-04T01:37:41.443Z,102032.13
2023-01-04T01:40:05.895Z,102044.63
2023-01-04T01:42:30.525Z,102041.59
2023-01-04T01:45:10.871Z,102036.28
2023-01-04T01:47:42.190Z,102037.13
2023-01-04T01:50:10.350Z,102047.16
2023-01-04T01:52:37.752Z,102048.97
2023-01-04T01:55:05.530Z,102039.69
2023-01-04T01:57:33.669Z,102033.81
2023-01-04T02:00:02.435Z,102017.72
2023-01-04T02:02:37.352Z,102017.88
2023-01-04T02:05:03.842Z,102017.56
2023-01-04T02:07:29.515Z,102011.56
2023-01-04T02:09:53.511Z,102010.22
2023-01-04T02:12:17.032Z,102005.66
2023-01-04T02:14:41.975Z,101989.28
2023-01-04T02:17:15.530Z,101972.47
2023-01-04T02:20:25.669Z,101953.78
2023-01-04T02:23:46.231Z,101938.22
2023-01-04T02:27:02.109Z,101927.75
2023-01-04T02:30:17.137Z,101918.38
2023-01-04T02:33:12.008Z,101903.00
2023-01-04T02:35:45.267Z,101905.94
2023-01-04T02:38:23.578Z,101886.72
2023-01-04T02:40:57.169Z,101887.28
2023-01-04T02:43:46.163Z,101879.22
2023-01-04T02:46:16.830Z,101881.13
2023-01-04T02:49:00.406Z,101871.50
2023-01-04T02:51:32.393Z,101883.91
2023-01-04T02:53:56.363Z,101885.47
2023-01-04T02:56:35.641Z,101872.34
2023-01-04T02:59:34.847Z,101876.81
2023-01-04T03:02:33.081Z,101874.75
2023-01-04T03:05:24.871Z,101867.75
2023-01-04T03:07:56.140Z,101868.06
2023-01-04T03:10:29.514Z,101868.84
2023-01-04T03:13:05.926Z,101856.44
2023-01-04T03:15:34.993Z,101851.97
2023-01-04T03:18:02.288Z,101844.72
2023-01-04T03:20:31.974Z,101840.88
2023-01-04T03:23:16.997Z,101843.66
2023-01-04T03:26:03.094Z,101849.53
2023-01-04T03:28:48.706Z,101839.41
2023-01-04T03:31:34.743Z,101827.00
2023-01-04T03:34:16.553Z,101822.59
2023-01-04T03:36:56.160Z,101809.22
2023-01-04T03:39:48.340Z,101800.72
2023-01-04T03:42:37.667Z,101787.59
2023-01-04T03:45:30.224Z,101785.56
2023-01-04T03:48:21.116Z,101774.91
2023-01-04T03:50:50.527Z,101762.81
2023-01-04T03:53:16.183Z,101766.16
2023-01-04T03:55:42.386Z,101766.78
2023-01-04T03:58:05.941Z,101762.53
2023-01-04T04:00:29.830Z,101754.84
2023-01-04T04:02:53.439Z,101758.00
2023-01-04T04:05:38.439Z,101749.72
2023-01-04T04:08:19.464Z,101746.56
2023-01-04T04:10:44.446Z,101744.75
2023-01-04T04:13:07.957Z,101723.59
2023-01-04T04:15:31.706Z,101716.72
2023-01-04T04:17:55.239Z,101713.19
2023-01-04T04:20:19.138Z,101704.81
2023-01-04T04:22:43.496Z,101697.97
2023-01-04T04:25:08.204Z,101690.28
2023-01-04T04:27:33.185Z,101677.94
2023-01-04T04:29:56.745Z,101675.94
2023-01-04T04:32:20.269Z,101679.41
2023-01-04T04:34:43.928Z,101669.00
2023-01-04T04:37:07.468Z,101670.53
2023-01-04T04:39:31.080Z,101652.63
2023-01-04T04:41:53.635Z,101651.69
2023-01-04T04:44:20.870Z,101646.38
2023-01-04T04:46:45.487Z,101632.00
2023-01-04T04:49:10.235Z,101630.41
2023-01-04T04:51:34.364Z,101633.25
2023-01-04T04:53:57.974Z,101631.53
2023-01-04T04:56:21.523Z,101625.28
2023-01-04T04:58:45.221Z,101606.56
2023-01-04T05:01:10.666Z,101607.06
2023-01-04T05:03:34.543Z,101605.44
2023-01-04T05:05:58.246Z,101593.78
2023-01-04T05:08:21.840Z,101598.03
2023-01-04T05:10:45.352Z,101588.03
2023-01-04T05:13:10.779Z,101571.13
2023-01-04T05:15:36.916Z,101574.06
2023-01-04T05:18:02.116Z,101573.38
2023-01-04T05:20:25.860Z,101563.50
2023-01-04T05:22:49.504Z,101550.09
2023-01-04T05:25:13.005Z,101546.44
2023-01-04T05:27:36.635Z,101543.22
2023-01-04T05:30:17.297Z,101529.88
2023-01-04T05:32:40.932Z,101511.69
2023-01-04T05:35:06.685Z,101515.75
2023-01-04T05:37:30.265Z,101499.56
2023-01-04T05:39:53.797Z,101501.91
2023-01-04T05:42:26.334Z,101486.72
2023-01-04T05:44:49.921Z,101482.78
2023-01-04T05:47:15.349Z,101471.50
2023-01-04T05:49:39.084Z,101474.38
2023-01-04T05:52:03.992Z,101470.06
2023-01-04T05:54:27.569Z,101464.94
2023-01-04T05:56:51.087Z,101463.63
2023-01-04T05:59:15.067Z,101458.34
2023-01-04T06:01:38.599Z,101456.25
2023-01-04T06:04:02.275Z,101453.97
2023-01-04T06:06:25.850Z,101452.50
2023-01-04T06:08:50.799Z,101449.66
2023-01-04T06:11:14.289Z,101450.31
2023-01-04T06:13:37.879Z,101443.63
2023-01-04T06:16:01.380Z,101434.22
2023-01-04T06:18:24.975Z,101434.78
2023-01-04T06:20:48.491Z,101431.78
2023-01-04T06:23:12.089Z,101422.88
2023-01-04T06:25:37.040Z,101411.03
2023-01-04T06:28:00.661Z,101410.78
2023-01-04T06:30:24.143Z,101401.66
2023-01-04T06:32:47.716Z,101396.03
2023-01-04T06:35:11.410Z,101395.41
2023-01-04T06:37:35.710Z,101386.47
2023-01-04T06:39:59.231Z,101373.47
2023-01-04T06:42:41.689Z,101381.59
2023-01-04T06:45:06.263Z,101373.59
2023-01-04T06:47:29.821Z,101364.00
2023-01-04T06:49:53.707Z,101365.41
2023-01-04T06:52:17.255Z,101356.09
2023-01-04T06:54:40.875Z,101338.97
2023-01-04T06:57:04.512Z,101350.88
2023-01-04T06:59:29.468Z,101344.31
2023-01-04T07:01:53.146Z,101352.59
2023-01-04T07:04:16.866Z,101348.91
2023-01-04T07:06:40.462Z,101340.47
2023-01-04T07:09:03.996Z,101325.94
2023-01-04T07:11:27.597Z,101319.81
2023-01-04T07:13:52.819Z,101316.41
2023-01-04T07:16:17.892Z,101309.59
2023-01-04T07:18:41.608Z,101307.25
2023-01-04T07:21:06.114Z,101308.78
2023-01-04T07:23:29.711Z,101307.25
2023-01-04T07:25:53.308Z,101291.69
2023-01-04T07:28:37.965Z,101290.91
2023-01-04T07:31:06.756Z,101285.41
2023-01-04T07:33:31.703Z,101280.91
2023-01-04T07:35:55.316Z,101277.22
2023-01-04T07:38:18.838Z,101275.16
2023-01-04T07:40:56.293Z,101268.34
2023-01-04T07:43:27.514Z,101261.78
2023-01-04T07:45:51.693Z,101242.06
2023-01-04T07:48:15.222Z,101244.66
2023-01-04T07:50:40.399Z,101247.00
2023-01-04T07:53:03.961Z,101233.22
2023-01-04T07:55:27.567Z,101239.50
2023-01-04T07:57:51.073Z,101225.47
2023-01-04T08:00:15.918Z,101218.22
2023-01-04T08:02:39.707Z,101207.22
2023-01-04T08:05:03.460Z,101212.53
2023-01-04T08:07:28.642Z,101204.56
2023-01-04T08:09:52.217Z,101197.22
2023-01-04T08:12:15.711Z,101187.59
2023-01-04T08:14:39.303Z,101187.34
2023-01-04T08:17:02.817Z,101186.88
2023-01-04T08:19:26.448Z,101190.00
2023-01-04T08:21:50.637Z,101184.66
2023-01-04T08:24:18.508Z,101191.06
2023-01-04T08:26:42.155Z,101194.25
2023-01-04T08:29:05.740Z,101182.09
2023-01-04T08:31:32.636Z,101177.94
2023-01-04T08:33:57.381Z,101167.66
2023-01-04T08:36:27.091Z,101174.53
2023-01-04T08:39:00.099Z,101170.16
2023-01-04T08:44:10.668Z,101164.88
2023-01-04T08:46:34.208Z,101166.81
2023-01-04T08:48:57.793Z,101157.22
2023-01-04T08:51:21.347Z,101159.66
2023-01-04T08:53:46.030Z,101160.25
2023-01-04T08:56:10.441Z,101154.47
2023-01-04T08:58:36.795Z,101163.94
2023-01-04T09:01:02.484Z,101153.09
2023-01-04T09:03:26.146Z,101146.75
2023-01-04T09:05:49.702Z,101144.25
2023-01-04T09:08:13.356Z,101136.00
2023-01-04T09:10:39.393Z,101136.91
2023-01-04T09:13:03.005Z,101132.78
2023-01-04T09:15:27.925Z,101136.22
2023-01-04T09:18:29.525Z,101129.28
2023-01-04T09:20:35.701Z,101120.59
2023-01-04T09:22:59.826Z,101128.50
2023-01-04T09:25:23.402Z,101114.47
2023-01-04T09:27:46.943Z,101116.00
2023-01-04T09:30:12.697Z,101111.41
2023-01-04T09:32:38.056Z,101106.16
2023-01-04T09:35:01.734Z,101100.81
2023-01-04T09:37:25.320Z,101090.13
2023-01-04T09:39:48.923Z,101091.97
2023-01-04T09:42:22.894Z,101086.50
2023-01-04T09:47:43.748Z,101070.47
2023-01-04T09:50:15.018Z,101067.25
2023-01-04T09:52:50.845Z,101057.66
2023-01-04T09:55:37.987Z,101054.84
2023-01-04T09:58:09.458Z,101051.50
2023-01-04T10:00:43.383Z,101046.03
2023-01-04T10:03:16.986Z,101039.34
2023-01-04T10:05:42.193Z,101027.97
2023-01-04T10:08:16.458Z,101034.38
2023-01-04T10:10:53.455Z,101013.53
2023-01-04T10:13:34.194Z,101011.25
2023-01-04T10:16:09.108Z,101001.28
2023-01-04T10:21:37.091Z,100980.91
2023-01-04T10:24:17.337Z,100977.25
2023-01-04T10:26:48.137Z,100975.91
2023-01-04T10:29:39.019Z,100978.94
2023-01-04T10:32:06.635Z,100975.69
2023-01-04T10:34:37.499Z,100965.97
2023-01-04T10:37:06.259Z,100958.84
2023-01-04T10:39:33.852Z,100956.00
2023-01-04T10:42:01.109Z,100958.38
2023-01-04T10:44:33.401Z,100952.72
2023-01-04T10:47:08.569Z,100949.94
2023-01-04T10:49:44.000Z,100945.97
2023-01-04T10:52:14.208Z,100936.50
2023-01-04T10:54:44.057Z,100925.78
2023-01-04T10:57:15.348Z,100932.28
2023-01-04T10:59:47.241Z,100916.50
2023-01-04T11:02:21.079Z,100917.34
2023-01-04T11:04:54.044Z,100915.25
2023-01-04T11:07:22.245Z,100909.69
2023-01-04T11:09:52.273Z,100899.84
2023-01-04T11:12:19.220Z,100894.69
2023-01-04T11:14:43.124Z,100884.41
2023-01-04T11:17:10.148Z,100894.44
2023-01-04T11:19:35.127Z,100894.25
2023-01-04T11:22:06.069Z,100887.31
2023-01-04T11:24:33.705Z,100874.69
2023-01-04T11:26:59.904Z,100874.69
2023-01-04T11:29:34.240Z,100875.31
2023-01-04T11:32:02.497Z,100884.22
2023-01-04T11:34:49.857Z,100862.81
2023-01-04T11:37:33.503Z,100852.44
2023-01-04T11:40:28.485Z,100857.03
2023-01-04T11:42:54.576Z,100846.22
2023-01-04T11:45:25.684Z,100842.06
2023-01-04T11:47:52.100Z,100836.25
2023-01-04T11:50:41.112Z,100830.69
2023-01-04T11:53:25.766Z,100823.50
2023-01-04T11:55:49.379Z,100821.06
2023-01-04T11:58:15.664Z,100821.28
2023-01-04T12:00:39.886Z,100819.97
2023-01-04T12:03:15.147Z,100804.59
2023-01-04T12:05:39.381Z,100805.63
2023-01-04T12:08:03.003Z,100797.41
2023-01-04T12:10:29.979Z,100795.03
2023-01-04T12:12:53.724Z,100786.56
2023-01-04T12:15:23.027Z,100791.88
2023-01-04T12:17:56.082Z,100789.28
2023-01-04T12:20:21.808Z,100788.47
2023-01-04T12:22:45.380Z,100774.72
2023-01-04T12:25:26.953Z,100771.16
2023-01-04T12:27:53.207Z,100779.69
2023-01-04T12:30:39.995Z,100781.03
2023-01-04T12:33:40.907Z,100763.00
2023-01-04T12:36:08.136Z,100762.91
2023-01-04T12:39:06.255Z,100756.03
2023-01-04T12:42:21.958Z,100751.81
2023-01-04T12:45:18.803Z,100737.84
2023-01-04T12:48:01.918Z,100732.38
2023-01-04T12:50:29.201Z,100732.00
2023-01-04T12:55:59.536Z,100729.06
2023-01-04T13:02:20.639Z,100710.06
2023-01-04T13:04:45.123Z,100728.91
2023-01-04T13:07:17.387Z,100719.41
2023-01-04T13:09:48.569Z,100707.66
2023-01-04T13:12:54.841Z,100689.25
2023-01-04T13:15:24.893Z,100709.78
2023-01-04T13:17:50.079Z,100695.75
2023-01-04T13:20:22.869Z,100700.66
2023-01-04T13:22:53.801Z,100698.97
2023-01-04T13:25:19.661Z,100689.75
2023-01-04T13:27:58.249Z,100689.59
2023-01-04T13:30:36.358Z,100678.19
2023-01-04T13:33:26.469Z,100668.66
2023-01-04T13:36:03.864Z,100672.81
2023-01-04T13:38:27.567Z,100669.41
2023-01-04T13:40:51.248Z,100661.56
2023-01-04T13:43:42.688Z,100656.72
2023-01-04T13:46:17.243Z,100668.72
2023-01-04T13:48:45.397Z,100671.31
2023-01-04T13:51:18.220Z,100668.00
2023-01-04T13:53:43.838Z,100654.69
2023-01-04T13:56:15.851Z,100656.72
2023-01-04T13:58:39.450Z,100670.25
2023-01-04T14:01:08.614Z,100661.38
2023-01-04T14:03:38.995Z,100656.13
2023-01-04T14:06:19.701Z,100638.16
2023-01-04T14:08:51.719Z,100656.28
2023-01-04T14:11:41.565Z,100639.50
2023-01-04T14:14:13.875Z,100644.72
2023-01-04T14:16:37.553Z,100646.78
2023-01-04T14:19:44.179Z,100632.25
2023-01-04T14:22:41.133Z,100634.34
2023-01-04T14:25:56.155Z,100630.09
2023-01-04T14:28:38.859Z,100629.38
2023-01-04T14:31:38.026Z,100622.22
2023-01-04T14:34:15.673Z,100618.28
2023-01-04T14:36:42.360Z,100621.44
2023-01-04T14:39:31.486Z,100620.63
2023-01-04T14:42:00.312Z,100617.22
2023-01-04T14:44:28.296Z,100621.72
2023-01-04T14:46:54.850Z,100610.66
2023-01-04T14:49:19.939Z,100610.19
2023-01-04T14:51:48.601Z,100609.31
2023-01-04T14:54:18.895Z,100599.31
2023-01-04T14:56:45.984Z,100599.59
2023-01-04T14:59:10.316Z,100594.72
2023-01-04T15:01:34.202Z,100589.59
2023-01-04T15:03:58.102Z,100588.84
2023-01-04T15:06:21.917Z,100583.72
2023-01-04T15:08:47.020Z,100576.06
2023-01-04T15:11:13.450Z,100581.31
2023-01-04T15:13:39.768Z,100564.00
2023-01-04T15:16:03.808Z,100570.47
2023-01-04T15:18:28.060Z,100568.88
2023-01-04T15:20:51.711Z,100570.75
2023-01-04T15:23:15.249Z,100574.97
2023-01-04T15:25:42.047Z,100572.91
2023-01-04T15:28:05.886Z,100569.78
2023-01-04T15:30:29.529Z,100564.97
2023-01-04T15:32:53.076Z,100562.44
2023-01-04T15:35:17.237Z,100561.81
2023-01-04T15:37:40.758Z,100575.22
2023-01-04T15:40:05.018Z,100552.31
2023-01-04T15:42:49.433Z,100548.78
2023-01-04T15:45:13.074Z,100541.44
2023-01-04T15:47:36.620Z,100541.84
2023-01-04T15:50:00.199Z,100532.22
2023-01-04T15:52:24.235Z,100529.38
2023-01-04T15:54:47.815Z,100525.03
2023-01-04T15:57:11.342Z,100525.75
2023-01-04T15:59:36.589Z,100511.84
2023-01-04T16:02:00.142Z,100523.31
2023-01-04T16:04:23.801Z,100515.50
2023-01-04T16:06:47.331Z,100516.25
2023-01-04T16:09:11.014Z,100510.75
2023-01-04T16:11:34.512Z,100511.38
2023-01-04T16:13:58.244Z,100511.63
2023-01-04T16:16:27.574Z,100499.88
2023-01-04T16:18:53.525Z,100487.34
2023-01-04T16:21:18.104Z,100488.69
2023-01-04T16:23:41.741Z,100482.22
2023-01-04T16:26:08.155Z,100468.00
2023-01-04T16:28:31.702Z,100482.34
2023-01-04T16:30:57.066Z,100482.00
2023-01-04T16:33:22.021Z,100469.78
2023-01-04T16:35:45.554Z,100467.50
2023-01-04T16:38:09.573Z,100461.75
2023-01-04T16:40:33.071Z,100462.22
2023-01-04T16:42:56.634Z,100465.28
2023-01-04T16:45:20.330Z,100451.41
2023-01-04T16:47:46.081Z,100451.75
2023-01-04T16:50:13.548Z,100444.78
2023-01-04T16:52:37.337Z,100435.72
2023-01-04T16:55:00.853Z,100425.91
2023-01-04T16:57:24.793Z,100437.53
2023-01-04T16:59:49.108Z,100434.91
2023-01-04T17:02:13.410Z,100434.34
2023-01-04T17:04:37.252Z,100432.25
2023-01-04T17:07:02.240Z,100424.28
2023-01-04T17:09:25.979Z,100423.22
2023-01-04T17:14:42.981Z,100418.25
2023-01-04T17:17:06.571Z,100405.91
2023-01-04T17:19:30.159Z,100407.25
2023-01-04T17:21:53.744Z,100403.34
2023-01-04T17:24:19.070Z,100406.31
2023-01-04T17:26:43.575Z,100378.31
2023-01-04T17:29:07.355Z,100383.53
2023-01-04T17:31:34.720Z,100371.44
2023-01-04T17:33:58.331Z,100371.97
2023-01-04T17:36:23.274Z,100379.09
2023-01-04T17:38:47.177Z,100377.72
2023-01-04T17:41:14.648Z,100364.59
2023-01-04T17:43:39.750Z,100376.84
2023-01-04T17:46:03.920Z,100367.03
2023-01-04T17:48:27.555Z,100357.06
2023-01-04T17:50:51.063Z,100374.75
2023-01-04T17:53:14.639Z,100373.53
2023-01-04T17:55:38.147Z,100375.97
2023-01-04T17:58:06.118Z,100370.16
2023-01-04T18:00:33.458Z,100374.59
2023-01-04T18:02:57.062Z,100370.69
2023-01-04T18:05:20.695Z,100351.50
2023-01-04T18:07:44.270Z,100362.09
2023-01-04T18:10:20.541Z,100370.09
2023-01-04T18:12:50.452Z,100360.84
2023-01-04T18:15:15.429Z,100362.59
2023-01-04T18:17:39.295Z,100341.94
2023-01-04T18:20:02.843Z,100371.63
2023-01-04T18:22:26.472Z,100366.47
2023-01-04T18:24:50.034Z,100351.47
2023-01-04T18:27:24.557Z,100338.53
2023-01-04T18:29:49.463Z,100349.72
2023-01-04T18:32:14.381Z,100348.31
2023-01-04T18:34:37.991Z,100349.00
2023-01-04T18:37:01.529Z,100345.63
2023-01-04T18:39:25.415Z,100335.22
2023-01-04T18:41:48.940Z,100342.50
2023-01-04T18:44:32.107Z,100359.41
2023-01-04T18:46:56.324Z,100351.59
2023-01-04T18:49:21.233Z,100347.91
2023-01-04T18:51:44.814Z,100343.56
2023-01-04T18:54:08.309Z,100327.16
2023-01-04T18:56:31.949Z,100327.56
2023-01-04T18:58:55.464Z,100323.19
2023-01-04T19:01:21.679Z,100325.84
2023-01-04T19:03:48.992Z,100336.56
2023-01-04T19:06:16.823Z,100340.16
2023-01-04T19:08:40.918Z,100321.50
2023-01-04T19:11:04.771Z,100326.16
2023-01-04T19:13:28.314Z,100320.34
2023-01-04T19:15:51.915Z,100317.53
2023-01-04T19:18:16.676Z,100314.28
2023-01-04T19:20:40.819Z,100315.84
2023-01-04T19:23:05.785Z,100317.97
2023-01-04T19:25:29.364Z,100306.66
2023-01-04T19:27:52.876Z,100310.34
2023-01-04T19:30:17.035Z,100314.59
2023-01-04T19:32:40.536Z,100315.16
2023-01-04T19:35:04.190Z,100307.38
2023-01-04T19:37:27.712Z,100311.31
2023-01-04T19:39:52.657Z,100305.56
2023-01-04T19:42:16.217Z,100304.09
2023-01-04T19:44:39.917Z,100305.25
2023-01-04T19:47:03.472Z,100307.22
2023-01-04T19:49:27.220Z,100297.91
2023-01-04T19:51:51.754Z,100292.22
2023-01-04T19:54:21.617Z,100292.22
2023-01-04T19:56:49.821Z,100284.56
2023-01-04T19:59:13.341Z,100277.22
2023-01-04T20:01:37.237Z,100286.25
2023-01-04T20:04:00.818Z,100292.63
2023-01-04T20:06:24.565Z,100285.03
2023-01-04T20:08:48.173Z,100297.16
2023-01-04T20:11:12.296Z,100301.16
2023-01-04T20:13:38.794Z,100299.47
2023-01-04T20:16:04.724Z,100287.09
2023-01-04T20:18:28.776Z,100301.97
2023-01-04T20:20:53.187Z,100293.59
2023-01-04T20:23:17.521Z,100291.25
2023-01-04T20:25:41.922Z,100297.09
2023-01-04T20:28:05.563Z,100275.94
2023-01-04T20:30:30.568Z,100283.31
2023-01-04T20:32:54.176Z,100279.16
2023-01-04T20:35:19.986Z,100293.31
2023-01-04T20:37:43.591Z,100282.88
2023-01-04T20:40:09.237Z,100296.03
2023-01-04T20:42:50.266Z,100301.72
2023-01-04T20:45:13.836Z,100290.94
2023-01-04T20:47:38.765Z,100302.88
2023-01-04T20:50:02.315Z,100307.50
2023-01-04T20:52:25.877Z,100314.84
2023-01-04T20:54:50.704Z,100296.34
2023-01-04T20:57:14.207Z,100297.75
2023-01-04T20:59:37.812Z,100299.91
2023-01-04T21:02:03.320Z,100280.22
2023-01-04T21:04:28.404Z,100274.44
2023-01-04T21:06:51.973Z,100287.16
2023-01-04T21:09:15.604Z,100281.22
2023-01-04T21:11:39.118Z,100268.75
2023-01-04T21:14:03.138Z,100277.13
2023-01-04T21:16:26.671Z,100275.13
2023-01-04T21:18:50.548Z,100263.94
2023-01-04T21:21:18.520Z,100268.19
2023-01-04T21:23:43.365Z,100270.16
2023-01-04T21:26:08.006Z,100268.59
2023-01-04T21:28:31.624Z,100270.31
2023-01-04T21:30:55.158Z,100268.03
2023-01-04T21:33:19.469Z,100266.72
2023-01-04T21:35:44.132Z,100258.69
2023-01-04T21:38:10.520Z,100248.75
2023-01-04T21:40:34.631Z,100260.78
2023-01-04T21:42:58.558Z,100250.94
2023-01-04T21:45:22.106Z,100262.13
2023-01-04T21:47:45.677Z,100263.78
2023-01-04T21:50:16.608Z,100269.31
2023-01-04T21:52:40.641Z,100269.41
2023-01-04T21:55:06.686Z,100259.13
2023-01-04T21:57:30.498Z,100277.94
2023-01-04T21:59:54.046Z,100277.22
2023-01-04T22:02:19.912Z,100273.25
2023-01-04T22:04:44.096Z,100266.06
2023-01-04T22:07:07.658Z,100270.16
2023-01-04T22:09:31.165Z,100262.06
2023-01-04T22:11:56.154Z,100262.78
2023-01-04T22:14:20.147Z,100268.16
2023-01-04T22:16:43.788Z,100269.81
2023-01-04T22:19:07.436Z,100260.78
2023-01-04T22:21:30.995Z,100268.16
2023-01-04T22:23:55.543Z,100269.88
2023-01-04T22:26:19.269Z,100267.75
2023-01-04T22:28:44.243Z,100255.56
2023-01-04T22:31:10.435Z,100261.75
2023-01-04T22:33:35.035Z,100253.13
2023-01-04T22:35:58.632Z,100255.53
2023-01-04T22:38:22.140Z,100248.88
2023-01-04T22:40:45.855Z,100242.69
2023-01-04T22:43:09.721Z,100253.44
2023-01-04T22:45:34.853Z,100253.53
2023-01-04T22:47:58.501Z,100270.69
2023-01-04T22:50:22.261Z,100266.00
2023-01-04T22:52:50.754Z,100256.53
2023-01-04T22:55:14.740Z,100272.06
2023-01-04T22:57:38.293Z,100260.75
2023-01-04T23:00:01.872Z,100269.25
2023-01-04T23:02:26.918Z,100268.09
2023-01-04T23:04:50.564Z,100266.41
2023-01-04T23:07:14.074Z,100272.91
2023-01-04T23:09:37.678Z,100263.03
2023-01-04T23:12:01.262Z,100259.97
2023-01-04T23:14:24.951Z,100262.34
2023-01-04T23:16:48.649Z,100256.56
2023-01-04T23:19:15.094Z,100260.94
2023-01-04T23:21:39.202Z,100261.38
2023-01-04T23:24:03.847Z,100256.00
2023-01-04T23:26:29.700Z,100252.47
2023-01-04T23:28:53.855Z,100253.59
2023-01-04T23:31:20.491Z,100250.63
2023-01-04T23:33:44.241Z,100252.03
2023-01-04T23:36:12.184Z,100249.22
2023-01-04T23:38:36.144Z,100247.94
2023-01-04T23:40:59.663Z,100256.69
2023-01-04T23:43:23.233Z,100244.97
2023-01-04T23:45:46.767Z,100243.38
2023-01-04T23:48:10.294Z,100252.28
2023-01-04T23:50:33.795Z,100250.44
2023-01-04T23:52:58.802Z,100245.63
2023-01-04T23:55:22.315Z,100249.38
2023-01-04T23:57:45.857Z,100246.94
